createdAt,value
2022-10-28T00:01:08.396Z,14.11
2022-10-28T00:03:40.265Z,13.83
2022-10-28T00:06:10.242Z,13.75
2022-10-28T00:08:37.627Z,13.88
2022-10-28T00:11:07.374Z,13.96
2022-10-28T00:13:35.307Z,13.89
2022-10-28T00:16:13.545Z,13.74
2022-10-28T00:18:41.457Z,13.82
2022-10-28T00:21:12.219Z,13.71
2022-10-28T00:23:40.098Z,13.64
2022-10-28T00:26:11.749Z,13.61
2022-10-28T00:28:43.855Z,13.66
2022-10-28T00:31:13.758Z,13.76
2022-10-28T00:33:41.250Z,13.85
2022-10-28T00:36:12.941Z,13.99
2022-10-28T00:38:40.949Z,14.04
2022-10-28T00:41:09.521Z,14.08
2022-10-28T00:43:37.710Z,14.12
2022-10-28T00:46:09.733Z,14.12
2022-10-28T00:48:41.186Z,14.12
2022-10-28T00:51:09.725Z,14.12
2022-10-28T00:53:40.599Z,13.76
2022-10-28T00:56:10.125Z,14.16
2022-10-28T00:58:37.601Z,14.13
2022-10-28T01:01:05.016Z,14.22
2022-10-28T01:03:32.038Z,14.28
2022-10-28T01:06:00.957Z,14.10
2022-10-28T01:08:28.307Z,14.19
2022-10-28T01:11:14.091Z,14.32
2022-10-28T01:14:04.153Z,14.25
2022-10-28T01:16:45.308Z,14.23
2022-10-28T01:19:53.693Z,14.29
2022-10-28T01:22:45.590Z,14.45
2022-10-28T01:25:12.506Z,14.53
2022-10-28T01:28:07.259Z,14.64
2022-10-28T01:31:21.520Z,14.72
2022-10-28T01:33:54.358Z,14.64
2022-10-28T01:36:40.218Z,14.60
2022-10-28T01:39:32.818Z,14.47
2022-10-28T01:42:26.503Z,14.45
2022-10-28T01:45:08.880Z,14.43
2022-10-28T01:47:55.450Z,14.33
2022-10-28T01:50:30.851Z,14.24
2022-10-28T01:53:03.477Z,14.13
2022-10-28T01:55:34.187Z,14.17
2022-10-28T01:58:03.582Z,14.26
2022-10-28T02:00:32.772Z,14.29
2022-10-28T02:02:59.944Z,14.27
2022-10-28T02:05:51.877Z,14.30
2022-10-28T02:08:18.847Z,14.25
2022-10-28T02:11:06.079Z,14.08
2022-10-28T02:13:54.260Z,14.10
2022-10-28T02:16:48.528Z,14.20
2022-10-28T02:19:38.593Z,14.30
2022-10-28T02:22:24.706Z,14.32
2022-10-28T02:25:18.849Z,14.46
2022-10-28T02:27:58.192Z,14.46
2022-10-28T02:30:39.445Z,14.40
2022-10-28T02:33:11.742Z,14.47
2022-10-28T02:35:45.186Z,14.17
2022-10-28T02:38:21.042Z,14.72
2022-10-28T02:40:53.933Z,14.81
2022-10-28T02:43:23.349Z,14.91
2022-10-28T02:45:55.657Z,14.97
2022-10-28T02:48:33.516Z,15.06
2022-10-28T02:51:06.993Z,14.83
2022-10-28T02:53:45.006Z,14.72
2022-10-28T02:56:15.771Z,15.03
2022-10-28T02:58:44.889Z,15.23
2022-10-28T03:01:12.029Z,15.24
2022-10-28T03:03:39.621Z,15.36
2022-10-28T03:06:06.647Z,15.46
2022-10-28T03:08:33.647Z,15.19
2022-10-28T03:11:00.653Z,15.58
2022-10-28T03:13:27.662Z,15.61
2022-10-28T03:15:54.691Z,15.72
2022-10-28T03:18:21.826Z,15.75
2022-10-28T03:20:48.827Z,15.75
2022-10-28T03:23:15.863Z,15.74
2022-10-28T03:25:42.881Z,15.63
2022-10-28T03:28:09.869Z,15.75
2022-10-28T03:30:36.970Z,15.82
2022-10-28T03:33:04.058Z,15.80
2022-10-28T03:35:31.114Z,15.81
2022-10-28T03:37:58.213Z,15.81
2022-10-28T03:40:25.321Z,15.82
2022-10-28T03:42:52.719Z,15.81
2022-10-28T03:45:19.942Z,15.79
2022-10-28T03:47:47.179Z,15.47
2022-10-28T03:50:14.241Z,15.57
2022-10-28T03:52:44.221Z,15.49
2022-10-28T03:55:11.237Z,15.85
2022-10-28T03:57:38.289Z,15.82
2022-10-28T04:00:06.131Z,15.71
2022-10-28T04:02:38.714Z,15.94
2022-10-28T04:05:05.940Z,15.81
2022-10-28T04:07:32.968Z,15.80
2022-10-28T04:09:59.982Z,15.84
2022-10-28T04:12:29.306Z,15.81
2022-10-28T04:14:56.350Z,15.76
2022-10-28T04:17:23.496Z,15.68
2022-10-28T04:19:50.509Z,15.81
2022-10-28T04:22:17.934Z,15.78
2022-10-28T04:24:44.920Z,15.50
2022-10-28T04:27:11.993Z,15.27
2022-10-28T04:29:39.059Z,15.55
2022-10-28T04:32:06.857Z,15.23
2022-10-28T04:34:33.882Z,15.50
2022-10-28T04:37:00.898Z,15.31
2022-10-28T04:39:27.966Z,15.38
2022-10-28T04:41:54.959Z,15.36
2022-10-28T04:44:21.939Z,15.34
2022-10-28T04:46:49.004Z,15.15
2022-10-28T04:49:16.065Z,15.26
2022-10-28T04:51:43.081Z,15.22
2022-10-28T04:54:10.098Z,15.21
2022-10-28T04:56:37.119Z,14.88
2022-10-28T04:59:04.211Z,14.99
2022-10-28T05:01:31.343Z,15.15
2022-10-28T05:03:58.409Z,14.96
2022-10-28T05:06:25.402Z,15.09
2022-10-28T05:08:52.375Z,15.11
2022-10-28T05:11:19.374Z,15.06
2022-10-28T05:13:46.546Z,14.73
2022-10-28T05:16:13.581Z,15.14
2022-10-28T05:18:40.692Z,14.92
2022-10-28T05:21:07.742Z,15.15
2022-10-28T05:23:34.786Z,15.18
2022-10-28T05:26:02.006Z,15.18
2022-10-28T05:28:29.009Z,15.24
2022-10-28T05:30:56.095Z,15.26
2022-10-28T05:33:23.390Z,15.27
2022-10-28T05:35:50.885Z,15.25
2022-10-28T05:38:18.259Z,15.25
2022-10-28T05:40:45.241Z,15.19
2022-10-28T05:43:12.394Z,15.00
2022-10-28T05:45:39.414Z,15.07
2022-10-28T05:48:06.853Z,15.07
2022-10-28T05:50:33.918Z,15.06
2022-10-28T05:53:00.949Z,15.05
2022-10-28T05:55:29.563Z,14.88
2022-10-28T05:57:57.506Z,14.90
2022-10-28T06:00:26.757Z,14.85
2022-10-28T06:03:02.526Z,14.86
2022-10-28T06:05:29.870Z,14.91
2022-10-28T06:07:56.984Z,14.95
2022-10-28T06:10:24.122Z,14.89
2022-10-28T06:12:49.745Z,14.65
2022-10-28T06:15:16.919Z,14.62
2022-10-28T06:17:47.307Z,14.63
2022-10-28T06:20:15.587Z,14.61
2022-10-28T06:22:53.919Z,14.64
2022-10-28T06:25:22.422Z,14.71
2022-10-28T06:27:57.637Z,14.81
2022-10-28T06:30:25.793Z,14.86
2022-10-28T06:32:56.477Z,14.87
2022-10-28T06:35:23.586Z,15.03
2022-10-28T06:37:55.344Z,14.82
2022-10-28T06:40:26.214Z,15.14
2022-10-28T06:43:01.834Z,15.10
2022-10-28T06:45:30.769Z,15.24
2022-10-28T06:48:01.932Z,15.26
2022-10-28T06:50:30.146Z,15.16
2022-10-28T06:52:58.312Z,15.44
2022-10-28T06:55:26.554Z,15.61
2022-10-28T06:57:54.847Z,15.45
2022-10-28T07:00:22.181Z,15.60
2022-10-28T07:02:53.577Z,15.25
2022-10-28T07:05:22.132Z,15.62
2022-10-28T07:07:49.627Z,15.42
2022-10-28T07:10:16.709Z,15.50
2022-10-28T07:12:43.691Z,15.26
2022-10-28T07:15:11.176Z,15.61
2022-10-28T07:17:38.233Z,15.48
2022-10-28T07:20:05.687Z,15.35
2022-10-28T07:22:32.679Z,15.59
2022-10-28T07:24:59.680Z,15.60
2022-10-28T07:27:26.694Z,15.25
2022-10-28T07:29:53.714Z,15.61
2022-10-28T07:32:20.801Z,15.41
2022-10-28T07:34:47.833Z,15.65
2022-10-28T07:37:14.985Z,15.79
2022-10-28T07:39:42.014Z,15.92
2022-10-28T07:42:09.031Z,16.04
2022-10-28T07:44:36.000Z,16.22
2022-10-28T07:47:03.112Z,16.34
2022-10-28T07:49:30.167Z,16.44
2022-10-28T07:51:57.351Z,16.65
2022-10-28T07:54:24.414Z,16.85
2022-10-28T07:56:51.436Z,17.02
2022-10-28T07:59:25.699Z,17.19
2022-10-28T08:01:55.021Z,17.15
2022-10-28T08:04:22.322Z,17.50
2022-10-28T08:06:49.356Z,17.22
2022-10-28T08:09:16.893Z,17.10
2022-10-28T08:11:43.888Z,16.84
2022-10-28T08:14:10.889Z,16.94
2022-10-28T08:16:37.902Z,16.86
2022-10-28T08:19:07.656Z,16.91
2022-10-28T08:21:34.987Z,17.15
2022-10-28T08:24:02.032Z,17.19
2022-10-28T08:26:29.057Z,17.25
2022-10-28T08:28:56.162Z,17.35
2022-10-28T08:31:23.221Z,17.35
2022-10-28T08:33:50.205Z,17.45
2022-10-28T08:36:17.414Z,17.48
2022-10-28T08:38:46.217Z,17.45
2022-10-28T08:41:31.412Z,17.57
2022-10-28T08:44:26.194Z,17.70
2022-10-28T08:47:09.849Z,17.92
2022-10-28T08:49:42.445Z,18.14
2022-10-28T08:52:19.633Z,18.33
2022-10-28T08:54:53.689Z,18.57
2022-10-28T08:57:47.835Z,18.61
2022-10-28T09:00:22.186Z,18.26
2022-10-28T09:03:12.325Z,18.45
2022-10-28T09:05:41.169Z,18.71
2022-10-28T09:08:22.723Z,18.82
2022-10-28T09:11:10.607Z,19.03
2022-10-28T09:13:59.646Z,19.14
2022-10-28T09:16:47.022Z,19.08
2022-10-28T09:19:43.706Z,19.00
2022-10-28T09:22:38.741Z,19.37
2022-10-28T09:25:30.768Z,19.33
2022-10-28T09:28:30.275Z,19.23
2022-10-28T09:31:15.255Z,19.06
2022-10-28T09:33:51.092Z,19.02
2022-10-28T09:36:55.744Z,19.14
2022-10-28T09:39:28.558Z,19.30
2022-10-28T09:42:00.922Z,19.43
2022-10-28T09:44:49.198Z,19.21
2022-10-28T09:47:27.331Z,19.35
2022-10-28T09:49:58.859Z,19.46
2022-10-28T09:52:40.512Z,19.36
2022-10-28T09:55:18.746Z,19.53
2022-10-28T09:57:45.758Z,19.57
2022-10-28T10:00:14.846Z,19.81
2022-10-28T10:02:43.677Z,19.59
2022-10-28T10:05:17.554Z,19.88
2022-10-28T10:07:50.953Z,19.78
2022-10-28T10:10:23.771Z,19.72
2022-10-28T10:12:52.702Z,19.38
2022-10-28T10:15:28.700Z,19.74
2022-10-28T10:17:59.778Z,19.65
2022-10-28T10:20:26.944Z,19.53
2022-10-28T10:22:54.224Z,20.09
2022-10-28T10:25:25.237Z,20.29
2022-10-28T10:27:59.716Z,20.29
2022-10-28T10:30:37.924Z,20.44
2022-10-28T10:33:07.353Z,20.40
2022-10-28T10:35:37.229Z,20.19
2022-10-28T10:38:07.321Z,20.29
2022-10-28T10:40:37.020Z,20.03
2022-10-28T10:43:31.456Z,19.91
2022-10-28T10:46:16.375Z,20.08
2022-10-28T10:48:44.358Z,19.99
2022-10-28T10:51:25.301Z,20.24
2022-10-28T10:53:57.649Z,20.35
2022-10-28T10:56:30.379Z,20.13
2022-10-28T10:59:03.085Z,20.70
2022-10-28T11:01:38.588Z,20.80
2022-10-28T11:04:07.690Z,21.03
2022-10-28T11:06:39.445Z,21.12
2022-10-28T11:09:17.382Z,21.11
2022-10-28T11:11:44.657Z,21.17
2022-10-28T11:14:13.283Z,21.10
2022-10-28T11:17:21.879Z,21.07
2022-10-28T11:19:53.718Z,20.69
2022-10-28T11:22:41.251Z,21.34
2022-10-28T11:25:35.738Z,21.28
2022-10-28T11:28:05.402Z,21.33
2022-10-28T11:30:55.415Z,21.62
2022-10-28T11:33:37.088Z,21.76
2022-10-28T11:36:07.287Z,21.66
2022-10-28T11:38:55.782Z,21.65
2022-10-28T11:41:39.260Z,21.68
2022-10-28T11:44:23.906Z,21.77
2022-10-28T11:47:05.477Z,21.76
2022-10-28T11:49:59.081Z,21.85
2022-10-28T11:52:53.911Z,21.77
2022-10-28T11:55:20.898Z,21.89
2022-10-28T11:58:00.135Z,21.75
2022-10-28T12:00:49.160Z,21.96
2022-10-28T12:03:36.690Z,21.82
2022-10-28T12:06:28.325Z,21.57
2022-10-28T12:09:19.836Z,21.67
2022-10-28T12:12:02.040Z,21.73
2022-10-28T12:14:43.409Z,21.98
2022-10-28T12:17:42.586Z,22.22
2022-10-28T12:20:24.440Z,22.17
2022-10-28T12:22:55.240Z,22.46
2022-10-28T12:25:30.761Z,22.28
2022-10-28T12:28:04.616Z,22.55
2022-10-28T12:30:36.172Z,22.24
2022-10-28T12:33:24.775Z,22.43
2022-10-28T12:35:56.847Z,22.39
2022-10-28T12:38:46.800Z,22.45
2022-10-28T12:41:17.059Z,22.42
2022-10-28T12:44:07.214Z,22.29
2022-10-28T12:47:02.106Z,22.35
2022-10-28T12:49:49.294Z,22.35
2022-10-28T12:52:31.660Z,22.49
2022-10-28T12:55:11.035Z,22.59
2022-10-28T12:57:39.541Z,22.70
2022-10-28T13:00:16.383Z,22.62
2022-10-28T13:02:50.727Z,22.76
2022-10-28T13:05:40.831Z,22.79
2022-10-28T13:08:32.417Z,22.91
2022-10-28T13:11:35.197Z,22.87
2022-10-28T13:14:13.772Z,22.77
2022-10-28T13:16:52.499Z,22.71
2022-10-28T13:19:39.441Z,22.81
2022-10-28T13:25:19.849Z,22.81
2022-10-28T13:27:48.491Z,22.78
2022-10-28T13:30:21.933Z,22.74
2022-10-28T13:33:01.358Z,22.59
2022-10-28T13:35:30.797Z,22.45
2022-10-28T13:37:59.749Z,22.28
2022-10-28T13:40:33.741Z,22.49
2022-10-28T13:43:02.080Z,22.57
2022-10-28T13:45:50.373Z,22.65
2022-10-28T13:48:29.372Z,22.72
2022-10-28T13:51:11.584Z,22.66
2022-10-28T13:53:47.675Z,22.75
2022-10-28T13:56:17.573Z,22.73
2022-10-28T13:59:10.809Z,22.62
2022-10-28T14:01:43.786Z,22.65
2022-10-28T14:04:34.852Z,22.64
2022-10-28T14:07:11.317Z,22.63
2022-10-28T14:09:41.425Z,22.62
2022-10-28T14:12:21.496Z,22.72
2022-10-28T14:15:02.008Z,22.44
2022-10-28T14:17:39.684Z,22.67
2022-10-28T14:20:51.273Z,22.64
2022-10-28T14:23:21.278Z,22.66
2022-10-28T14:25:51.105Z,22.73
2022-10-28T14:28:26.987Z,22.60
2022-10-28T14:31:10.353Z,22.68
2022-10-28T14:33:46.028Z,22.63
2022-10-28T14:36:19.447Z,22.62
2022-10-28T14:39:08.437Z,22.58
2022-10-28T14:42:00.328Z,22.48
2022-10-28T14:44:56.689Z,22.40
2022-10-28T14:47:51.659Z,22.49
2022-10-28T14:50:50.365Z,22.45
2022-10-28T14:53:24.172Z,22.39
2022-10-28T14:55:58.699Z,22.34
2022-10-28T14:58:30.532Z,22.23
2022-10-28T15:01:16.116Z,22.22
2022-10-28T15:03:50.372Z,22.03
2022-10-28T15:06:24.724Z,22.07
2022-10-28T15:08:53.367Z,22.05
2022-10-28T15:11:21.347Z,21.92
2022-10-28T15:13:54.303Z,21.72
2022-10-28T15:16:23.906Z,21.65
2022-10-28T15:18:53.944Z,21.58
2022-10-28T15:21:22.738Z,21.61
2022-10-28T15:24:02.115Z,21.50
2022-10-28T15:26:29.415Z,21.40
2022-10-28T15:28:56.603Z,21.36
2022-10-28T15:31:23.724Z,21.32
2022-10-28T15:33:50.744Z,21.20
2022-10-28T15:36:27.015Z,21.10
2022-10-28T15:39:17.058Z,21.04
2022-10-28T15:41:46.142Z,20.82
2022-10-28T15:44:33.636Z,20.71
2022-10-28T15:47:06.672Z,20.52
2022-10-28T15:49:34.198Z,20.49
2022-10-28T15:52:35.128Z,20.42
2022-10-28T15:55:30.619Z,20.28
2022-10-28T15:58:14.985Z,20.13
2022-10-28T16:00:56.386Z,19.98
2022-10-28T16:03:41.482Z,19.92
2022-10-28T16:06:33.693Z,19.60
2022-10-28T16:09:05.130Z,19.73
2022-10-28T16:11:36.318Z,19.68
2022-10-28T16:14:19.408Z,19.62
2022-10-28T16:16:46.717Z,19.43
2022-10-28T16:19:28.976Z,19.36
2022-10-28T16:21:56.344Z,19.20
2022-10-28T16:24:23.460Z,19.08
2022-10-28T16:26:50.478Z,19.09
2022-10-28T16:29:17.482Z,19.03
2022-10-28T16:31:50.263Z,18.92
2022-10-28T16:34:17.287Z,18.88
2022-10-28T16:36:44.337Z,18.54
2022-10-28T16:39:13.075Z,18.66
2022-10-28T16:41:40.878Z,18.55
2022-10-28T16:44:17.901Z,18.47
2022-10-28T16:46:45.043Z,18.45
2022-10-28T16:49:12.207Z,18.42
2022-10-28T16:51:39.815Z,18.29
2022-10-28T16:54:07.500Z,18.04
2022-10-28T16:56:34.491Z,18.25
2022-10-28T16:59:01.528Z,17.84
2022-10-28T17:01:28.697Z,18.14
2022-10-28T17:03:56.053Z,17.82
2022-10-28T17:06:23.316Z,18.02
2022-10-28T17:09:02.547Z,18.09
2022-10-28T17:13:58.876Z,17.98
2022-10-28T17:16:25.920Z,17.90
2022-10-28T17:18:52.990Z,17.91
2022-10-28T17:21:19.995Z,17.90
2022-10-28T17:23:48.084Z,17.84
2022-10-28T17:26:15.210Z,17.88
2022-10-28T17:28:42.259Z,17.83
2022-10-28T17:31:09.917Z,17.66
2022-10-28T17:33:36.973Z,17.46
2022-10-28T17:36:06.984Z,17.69
2022-10-28T17:38:34.264Z,17.45
2022-10-28T17:41:01.558Z,17.41
2022-10-28T17:43:28.742Z,17.45
2022-10-28T17:46:06.984Z,17.26
2022-10-28T17:48:34.661Z,17.28
2022-10-28T17:51:01.691Z,17.13
2022-10-28T17:53:28.734Z,17.20
2022-10-28T17:56:01.046Z,17.06
2022-10-28T17:58:28.833Z,16.96
2022-10-28T18:00:58.152Z,17.13
2022-10-28T18:03:25.908Z,17.02
2022-10-28T18:05:53.635Z,16.96
2022-10-28T18:08:21.620Z,16.87
2022-10-28T18:10:57.595Z,16.85
2022-10-28T18:13:32.317Z,16.86
2022-10-28T18:16:10.216Z,16.79
2022-10-28T18:18:42.019Z,16.45
2022-10-28T18:21:13.102Z,16.67
2022-10-28T18:23:41.027Z,16.59
2022-10-28T18:26:12.302Z,16.59
2022-10-28T18:28:40.619Z,16.48
2022-10-28T18:31:11.794Z,16.20
2022-10-28T18:33:38.803Z,16.41
2022-10-28T18:36:17.738Z,16.39
2022-10-28T18:38:44.958Z,16.37
2022-10-28T18:41:14.307Z,16.33
2022-10-28T18:43:41.594Z,15.87
2022-10-28T18:46:09.241Z,16.25
2022-10-28T18:48:36.773Z,16.02
2022-10-28T18:51:06.852Z,16.15
2022-10-28T18:53:39.037Z,16.13
2022-10-28T18:56:09.950Z,16.08
2022-10-28T18:58:37.398Z,16.10
2022-10-28T19:01:10.494Z,15.55
2022-10-28T19:03:38.338Z,16.03
2022-10-28T19:06:10.988Z,15.98
2022-10-28T19:08:38.343Z,15.99
2022-10-28T19:11:06.722Z,15.96
2022-10-28T19:13:38.956Z,15.76
2022-10-28T19:16:07.406Z,15.78
2022-10-28T19:18:38.253Z,15.51
2022-10-28T19:21:16.248Z,15.60
2022-10-28T19:23:43.518Z,15.71
2022-10-28T19:26:13.602Z,15.46
2022-10-28T19:28:43.163Z,15.59
2022-10-28T19:31:16.938Z,15.41
2022-10-28T19:33:45.210Z,15.56
2022-10-28T19:36:38.691Z,15.68
2022-10-28T19:39:05.786Z,15.56
2022-10-28T19:41:33.037Z,15.62
2022-10-28T19:44:01.985Z,15.41
2022-10-28T19:46:31.304Z,15.60
2022-10-28T19:48:59.690Z,15.70
2022-10-28T19:51:29.369Z,15.67
2022-10-28T19:53:58.967Z,15.68
2022-10-28T19:56:27.378Z,15.68
2022-10-28T19:58:56.511Z,15.58
2022-10-28T20:01:25.421Z,15.56
2022-10-28T20:03:54.189Z,15.23
2022-10-28T20:06:25.731Z,15.53
2022-10-28T20:08:53.375Z,15.47
2022-10-28T20:11:26.817Z,15.44
2022-10-28T20:13:56.013Z,15.41
2022-10-28T20:16:24.384Z,15.42
2022-10-28T20:18:51.492Z,15.34
2022-10-28T20:21:20.694Z,15.34
2022-10-28T20:26:18.786Z,15.05
2022-10-28T20:28:45.848Z,15.05
2022-10-28T20:31:15.500Z,15.27
2022-10-28T20:33:44.712Z,15.29
2022-10-28T20:36:26.807Z,15.26
2022-10-28T20:38:59.661Z,15.09
2022-10-28T20:41:29.729Z,15.12
2022-10-28T20:43:57.595Z,14.90
2022-10-28T20:46:25.882Z,14.82
2022-10-28T20:48:56.747Z,15.09
2022-10-28T20:51:26.529Z,15.07
2022-10-28T20:53:54.102Z,15.02
2022-10-28T20:56:26.873Z,14.67
2022-10-28T20:58:55.544Z,14.93
2022-10-28T21:01:24.021Z,14.91
2022-10-28T21:03:59.636Z,14.89
2022-10-28T21:06:27.729Z,14.92
2022-10-28T21:08:55.175Z,14.53
2022-10-28T21:11:23.546Z,14.84
2022-10-28T21:13:56.380Z,14.48
2022-10-28T21:16:24.804Z,14.76
2022-10-28T21:18:52.205Z,14.71
2022-10-28T21:21:20.883Z,14.71
2022-10-28T21:23:48.098Z,14.65
2022-10-28T21:26:15.463Z,14.66
2022-10-28T21:28:42.557Z,14.59
2022-10-28T21:31:12.931Z,14.59
2022-10-28T21:33:41.026Z,14.61
2022-10-28T21:36:11.882Z,14.60
2022-10-28T21:38:39.373Z,14.26
2022-10-28T21:41:19.611Z,14.47
2022-10-28T21:43:51.953Z,14.47
2022-10-28T21:46:21.192Z,14.41
2022-10-28T21:48:48.558Z,14.34
2022-10-28T21:51:17.165Z,14.11
2022-10-28T21:53:44.827Z,14.39
2022-10-28T21:56:17.722Z,14.38
2022-10-28T21:58:47.669Z,14.30
2022-10-28T22:01:18.012Z,14.27
2022-10-28T22:03:45.195Z,14.10
2022-10-28T22:06:12.283Z,14.26
2022-10-28T22:08:39.338Z,14.24
2022-10-28T22:11:18.014Z,14.08
2022-10-28T22:13:45.609Z,14.08
2022-10-28T22:16:15.008Z,14.13
2022-10-28T22:18:42.531Z,14.20
2022-10-28T22:21:15.729Z,14.21
2022-10-28T22:23:43.132Z,13.92
2022-10-28T22:26:14.681Z,14.17
2022-10-28T22:28:41.960Z,13.98
2022-10-28T22:31:11.787Z,14.08
2022-10-28T22:33:39.418Z,13.97
2022-10-28T22:36:09.496Z,13.96
2022-10-28T22:38:38.936Z,13.99
2022-10-28T22:41:13.325Z,13.97
2022-10-28T22:43:41.827Z,13.92
2022-10-28T22:46:10.048Z,13.85
2022-10-28T22:48:37.725Z,13.84
2022-10-28T22:51:05.213Z,13.71
2022-10-28T22:53:32.486Z,13.84
2022-10-28T22:55:59.522Z,13.85
2022-10-28T22:58:27.782Z,13.81
2022-10-28T23:01:04.925Z,13.65
2022-10-28T23:03:36.701Z,13.64
2022-10-28T23:06:04.118Z,13.78
2022-10-28T23:08:31.586Z,13.77
2022-10-28T23:10:58.780Z,13.70
2022-10-28T23:13:26.384Z,13.62
2022-10-28T23:15:54.313Z,13.53
2022-10-28T23:18:25.506Z,13.49
2022-10-28T23:20:52.555Z,13.54
2022-10-28T23:23:20.321Z,13.58
2022-10-28T23:25:54.244Z,13.54
2022-10-28T23:28:21.503Z,13.47
2022-10-28T23:30:48.621Z,13.38
2022-10-28T23:33:15.774Z,13.29
2022-10-28T23:35:42.992Z,13.13
2022-10-28T23:38:11.663Z,13.27
2022-10-28T23:40:38.680Z,13.27
2022-10-28T23:43:05.656Z,13.29
2022-10-28T23:45:32.666Z,13.28
2022-10-28T23:47:59.655Z,13.29
2022-10-28T23:50:26.649Z,13.23
2022-10-28T23:52:55.457Z,13.23
2022-10-28T23:55:22.780Z,13.21
2022-10-28T23:57:49.796Z,13.19
